NY Terminal Aviation Weather Discussion (AFD) - Prepared: 608 AM EST SAT DEC 20 2014
HIGH PRES BUILDS OVER THE AREA FOR THIS WEEKEND AND DEPARTS EARLY
IN THE NEW WEEK. 

CIGS WILL VARY BETWEEN SCT-BKN 2500-3500 FT AS MOISTURE REMAINS
TRAPPED UNDER AN INVERSION. BEST CHANCES FOR VFR CIGS WILL OCCUR
FROM AROUND 15Z-22Z TODAY. INCREASING CHANCES FOR WIDESPREAD BKN-
OVC MVFR CIGS 2500-3000 FT TONIGHT.

N TO NE WINDS AT 6-8 KT TODAY WILL BECOME LGT/VRB LATE THIS
AFTERNOON AND THROUGH TONIGHT.

LIGHT SNOW AND/OR FLURRIES POSSIBLE FOR KGON/KISP AFTER MIDNIGHT
TONIGHT.

5 Day General Aviation Outlook:

.OUTLOOK FOR 12Z SUNDAY THROUGH WEDNESDAY...
.SUNDAY...MVFR CIGS...WITH LIGHT SNOW/RAIN SHOWERS POSSIBLE FOR
CITY/COASTAL TERMINALS. LIGHT NORTHEAST WINDS.
.MON...MVFR OR LOWER POSSIBLE IN E-SE FLOW. CHC OF RAIN.
.MON NIGHT-TUE...IFR LIKELY AT TIMES IN RAIN...CIGS AND VSBYS. E-SE 
WINDS 10-20 KT. 
.TUE NIGHT AND WED...HIGH IMPACT EVENT POSSIBLE...IFR LIKELY WITH 
HEAVY RAIN AND GUSTY SE WINDS 25KT+ SHIFTING TO SW LATE WED.


NY Metro Terminal Aviation Weather Summary: (Explanation of Color Coding)
NOTE: All Wind Directions are TRUE (add 13 degrees for magnetic directions). Tail and Crosswind Calculations do account for the magnetic deviation of runways.

Click on the Airport Below for Specific Information at that Terminal

TAF Overview JFK TAF LGA TAF EWR TAF TEB TAF HPN TAF ISP TAF

Jump to AirSpace Impacts Section Condensed "lite" version of SPA page
**************************************************************************************
KJFK Terminal Weather: (Wind Directions Are True, Except Where Noted, ADD 13 degrees for Magnetic)

5MIN KJFK 201210Z 02008KT 10SM OVC027 00/M07 A3028 -310
      58 -2100 030/08 RMK AO2 $
5MIN KJFK 201205Z 01008KT 10SM OVC027 00/M07 A3028 -310
      58 -2100 030/08 RMK AO2 $
********************************************
****        MAGNETIC DIRECTIONS         ****
********************************************
KJFK 12/20/2014 12:23:36 GMT 030 09 KT
KJFK 12/20/2014 12:21:36 GMT 030 07 KT
KJFK 12/20/2014 12:19:36 GMT 010 08 KT
KJFK 12/20/2014 12:17:36 GMT 020 07 KT
KJFK 12/20/2014 12:15:36 GMT 020 07 KT
KJFK 12/20/2014 12:13:36 GMT 030 07 KT
KJFK 12/20/2014 12:11:36 GMT 020 08 KT
KJFK 12/20/2014 12:09:36 GMT 020 08 KT
KJFK 12/20/2014 12:07:36 GMT 010 09 KT
KJFK 12/20/2014 12:05:36 GMT 030 07 KT
SAUS70 KJFK 201200 RRS
METAR KJFK 201151Z 02010KT 10SM OVC027 00/M07 A3028 RMK AO2 SLP252
     T00001067 10011 21006 51014 $
FTNA35 KJFK 201131 RRD
KJFK 201129Z 2012/2118 36008KT P6SM OVC025
     FM201500 01006KT P6SM BKN030
     FM202200 VRB03KT P6SM BKN030
     FM211500 35007KT P6SM SCT030 BKN060
KJFK Forecaster Comments Not Available at This Time
jfk

JFK Hourly Forecast Temperature (C)

JFK Hourly TMPS
**************************************************************************************
KLGA Terminal Weather: (Wind Directions Are True, Except Where Noted, ADD 13 degrees for Magnetic)

5MIN KLGA 201210Z 34009KT 10SM OVC028 M01/M06 A3027 
     -290 66 -2200 350/09 RMK AO2
5MIN KLGA 201205Z 34008KT 10SM OVC028 M01/M06 A3027 
     -290 66 -2200 350/08 RMK AO2
********************************************
****        MAGNETIC DIRECTIONS         ****
********************************************
KLGA 12/20/2014 12:23:55 GMT 360 10 KT
KLGA 12/20/2014 12:21:55 GMT 360 09 KT
KLGA 12/20/2014 12:19:55 GMT 360 10 KT
KLGA 12/20/2014 12:17:55 GMT 360 09 KT
KLGA 12/20/2014 12:15:54 GMT 350 08 KT
KLGA 12/20/2014 12:13:54 GMT 360 08 KT
KLGA 12/20/2014 12:11:54 GMT 360 10 KT
KLGA 12/20/2014 12:09:54 GMT 010 09 KT
KLGA 12/20/2014 12:07:54 GMT 360 08 KT
KLGA 12/20/2014 12:05:54 GMT 010 09 KT
SAUS70 KLGA 201200
METAR KLGA 201151Z 01008KT 10SM OVC028 M01/M06 A3027 RMK AO2 SLP251
     T10061061 10006 21006 53018
FTUS80 KLGA 201130 RRB
KLGA 201129Z 2012/2112 02008KT P6SM OVC025
     FM201500 03006KT P6SM BKN030
     FM202200 36005KT P6SM BKN030
KLGA Forecaster Comments Not Available at This Time
lga


**************************************************************************************

KEWR Terminal Weather: (Wind Directions Are True, Except Where Noted, ADD 13 degrees for Magnetic)

5MIN KEWR 201210Z 33008KT 10SM OVC026 00/M06 A3027 -300
      63 -2100 340/08 RMK AO2
5MIN KEWR 201205Z 34007KT 10SM OVC026 00/M06 A3027 -300
      63 -2100 350/07 RMK AO2
********************************************
****        MAGNETIC DIRECTIONS         ****
********************************************
KEWR 12/20/2014 12:23:42 GMT 350 09 KT
KEWR 12/20/2014 12:21:42 GMT 350 08 KT
KEWR 12/20/2014 12:19:42 GMT 340 08 KT
KEWR 12/20/2014 12:17:42 GMT 340 07 KT
KEWR 12/20/2014 12:15:42 GMT 340 08 KT
KEWR 12/20/2014 12:13:42 GMT 340 08 KT
KEWR 12/20/2014 12:11:42 GMT 340 09 KT
KEWR 12/20/2014 12:09:42 GMT 330 08 KT
KEWR 12/20/2014 12:07:43 GMT 340 07 KT
KEWR 12/20/2014 12:05:43 GMT 340 06 KT
SAUS70 KEWR 201200
METAR KEWR 201151Z 33008KT 10SM OVC026 00/M06 A3027 RMK AO2 SLP249
     T00001061 10000 21006 51015
FTUS80 KEWR 201133 RRB
KEWR 201129Z 2012/2118 01005KT P6SM OVC025
     FM201500 VRB03KT P6SM BKN030
     FM211500 34007KT P6SM SCT030 BKN060
KEWR Forecaster Comments Not Available at This Time
ewr
Afternoon EWR Haze Potential Forecast: KEWR Haze Forecast Not Available at This Time
IS NOT AVAILABLE AT THIS TIME


******************************************************************************

KTEB Terminal Weather:
SAUS80 KTEB 201200
METAR KTEB 201151Z 36005KT 10SM OVC028 00/M07 A3027 RMK AO2 SLP249
     T00001067 10000 20000 51016
FTUS80 KTEB 201133 RRH
KTEB 201129Z 2012/2112 01005KT P6SM OVC025
     FM201500 VRB03KT P6SM BKN030
KTEB Forecaster Comments Not Available at This Time
teb

 


**************************************************************************************

KHPN Terminal Weather:
SAUS70 KHPN 201200
METAR KHPN 201156Z 35005KT 10SM OVC021 M02/M07 A3024 RMK AO2 SLP250
     T10221072 11022 21033 51019
FTUS80 KHPN 201133 RRD
KHPN 201129Z 2012/2112 36005KT P6SM OVC025
     FM201500 VRB04KT P6SM BKN030
     FM202200 VRB02KT P6SM OVC025 AMD NOT SKED
KHPN Forecaster Comments Not Available at This Time
HPN


******************************************************************************

KISP Terminal Weather:
SAUS70 KISP 201200
METAR KISP 201156Z 36004KT 10SM OVC024 00/M06 A3024 RMK AO2 SLP242
     T00001061 10000 21006 51020
FTUS80 KISP 201133 RRD
KISP 201129Z 2012/2112 35007KT P6SM OVC025
     FM201500 03005KT P6SM BKN030
     FM210500 VRB03KT P6SM -SHSN SCT015 BKN025
KISP Forecaster Comments Not Available at This Time
ISP

 


ZNY SWAP Season Information

(ZNY SWAP STATEMENT) (Click for PDF File) (ZNY BRIEFING) (Click for PDF File)

*******************************************************
***        NY AIR ROUTE TRAFFIC CONTROL CENTER      ***
***                DAILY SWAP STATEMENT             ***
*******************************************************
NY AIR ROUTE TRAFFIC CONTROL CENTER
DAILY SWAP STATEMENT
SUNDAY OCTOBER 26, 2014
ROUTINE SWAP STATEMENTS ARE ISSUED 
BETWEEN APRIL 1 AND SEPTEMBER 30.
SWAP STATEMENTS WILL BE ISSUED IF TS ARE 
EXPECTED TO IMPACT OPERATIONS.
$$



N90 AirSpace Impacts

N90 Compression Forecast

N90 Compression Forecast

N90 Icing Forecast

N90 Icing Forecast

N90 Thunderstorm Forecast (Issued if Expected)

N90 Day 2 SWAP Outlook

 

Surface Weather Map

Surface Weather map

National Collaborative Convective Forecast Product (CCFP) Forecasts (Mar-Oct)


Vertical Wind Profile
Untitled Document